sensor_id;sensor_type;location;lat;lon;timestamp;pressure;altitude;pressure_sealevel;temperature;humidity
43436;BME280;36399;51.444;-2.018;2023-02-18T00:02:18;101598.00;;;8.98;100.00
43436;BME280;36399;51.444;-2.018;2023-02-18T00:04:44;101601.38;;;8.95;100.00
43436;BME280;36399;51.444;-2.018;2023-02-18T00:07:10;101591.56;;;8.90;100.00
43436;BME280;36399;51.444;-2.018;2023-02-18T00:09:37;101589.78;;;8.89;100.00
43436;BME280;36399;51.444;-2.018;2023-02-18T00:12:03;101587.91;;;8.84;100.00
43436;BME280;36399;51.444;-2.018;2023-02-18T00:14:30;101605.50;;;8.89;100.00
43436;BME280;36399;51.444;-2.018;2023-02-18T00:16:56;101597.72;;;8.90;100.00
43436;BME280;36399;51.444;-2.018;2023-02-18T00:19:22;101587.22;;;8.90;100.00
43436;BME280;36399;51.444;-2.018;2023-02-18T00:21:48;101578.31;;;8.85;100.00
43436;BME280;36399;51.444;-2.018;2023-02-18T00:24:14;101585.19;;;8.83;100.00
43436;BME280;36399;51.444;-2.018;2023-02-18T00:26:41;101595.53;;;8.80;100.00
43436;BME280;36399;51.444;-2.018;2023-02-18T00:29:07;101601.38;;;8.73;100.00
43436;BME280;36399;51.444;-2.018;2023-02-18T00:31:35;101579.38;;;8.68;100.00
43436;BME280;36399;51.444;-2.018;2023-02-18T00:34:03;101563.84;;;8.72;100.00
43436;BME280;36399;51.444;-2.018;2023-02-18T00:36:30;101555.44;;;8.81;100.00
43436;BME280;36399;51.444;-2.018;2023-02-18T00:39:00;101562.50;;;8.83;100.00
43436;BME280;36399;51.444;-2.018;2023-02-18T00:41:27;101558.25;;;8.85;100.00
43436;BME280;36399;51.444;-2.018;2023-02-18T00:43:54;101543.72;;;8.94;100.00
43436;BME280;36399;51.444;-2.018;2023-02-18T00:46:20;101543.78;;;8.95;100.00
43436;BME280;36399;51.444;-2.018;2023-02-18T00:48:47;101550.34;;;9.08;100.00
43436;BME280;36399;51.444;-2.018;2023-02-18T00:51:13;101548.66;;;9.10;100.00
43436;BME280;36399;51.444;-2.018;2023-02-18T00:53:39;101545.06;;;9.06;100.00
43436;BME280;36399;51.444;-2.018;2023-02-18T00:56:05;101538.19;;;9.10;100.00
43436;BME280;36399;51.444;-2.018;2023-02-18T00:58:32;101536.56;;;9.13;100.00
43436;BME280;36399;51.444;-2.018;2023-02-18T01:00:59;101529.72;;;9.17;100.00
43436;BME280;36399;51.444;-2.018;2023-02-18T01:03:25;101517.66;;;9.22;100.00
43436;BME280;36399;51.444;-2.018;2023-02-18T01:05:52;101523.75;;;9.21;100.00
43436;BME280;36399;51.444;-2.018;2023-02-18T01:08:20;101521.00;;;9.18;100.00
43436;BME280;36399;51.444;-2.018;2023-02-18T01:10:48;101528.88;;;9.18;100.00
43436;BME280;36399;51.444;-2.018;2023-02-18T01:13:15;101507.91;;;9.18;100.00
43436;BME280;36399;51.444;-2.018;2023-02-18T01:15:42;101514.09;;;9.20;100.00
43436;BME280;36399;51.444;-2.018;2023-02-18T01:18:08;101500.25;;;9.24;100.00
43436;BME280;36399;51.444;-2.018;2023-02-18T01:20:35;101484.53;;;9.24;100.00
43436;BME280;36399;51.444;-2.018;2023-02-18T01:23:02;101480.16;;;9.23;100.00
43436;BME280;36399;51.444;-2.018;2023-02-18T01:25:28;101478.31;;;9.21;100.00
43436;BME280;36399;51.444;-2.018;2023-02-18T01:27:57;101482.66;;;9.20;100.00
43436;BME280;36399;51.444;-2.018;2023-02-18T01:30:23;101480.78;;;9.16;100.00
43436;BME280;36399;51.444;-2.018;2023-02-18T01:32:49;101481.28;;;9.31;100.00
43436;BME280;36399;51.444;-2.018;2023-02-18T01:35:17;101468.81;;;9.24;100.00
43436;BME280;36399;51.444;-2.018;2023-02-18T01:37:44;101463.88;;;9.33;100.00
43436;BME280;36399;51.444;-2.018;2023-02-18T01:40:16;101473.44;;;9.31;100.00
43436;BME280;36399;51.444;-2.018;2023-02-18T01:42:42;101454.88;;;9.25;100.00
43436;BME280;36399;51.444;-2.018;2023-02-18T01:48:24;101429.78;;;9.32;100.00
43436;BME280;36399;51.444;-2.018;2023-02-18T01:50:59;101434.91;;;9.29;100.00
43436;BME280;36399;51.444;-2.018;2023-02-18T01:53:31;101418.50;;;9.34;100.00
43436;BME280;36399;51.444;-2.018;2023-02-18T01:55:59;101429.69;;;9.29;100.00
43436;BME280;36399;51.444;-2.018;2023-02-18T01:58:28;101408.81;;;9.32;100.00
43436;BME280;36399;51.444;-2.018;2023-02-18T02:00:54;101411.47;;;9.33;100.00
43436;BME280;36399;51.444;-2.018;2023-02-18T02:03:20;101406.25;;;9.33;100.00
43436;BME280;36399;51.444;-2.018;2023-02-18T02:05:46;101410.66;;;9.34;100.00
43436;BME280;36399;51.444;-2.018;2023-02-18T02:08:12;101404.69;;;9.38;100.00
43436;BME280;36399;51.444;-2.018;2023-02-18T02:11:03;101398.47;;;9.36;100.00
43436;BME280;36399;51.444;-2.018;2023-02-18T02:14:10;101403.00;;;9.40;100.00
43436;BME280;36399;51.444;-2.018;2023-02-18T02:16:46;101409.25;;;9.44;100.00
43436;BME280;36399;51.444;-2.018;2023-02-18T02:30:43;101401.78;;;9.31;100.00
43436;BME280;36399;51.444;-2.018;2023-02-18T02:38:30;101363.44;;;9.33;100.00
43436;BME280;36399;51.444;-2.018;2023-02-18T02:41:12;101376.47;;;9.31;100.00
43436;BME280;36399;51.444;-2.018;2023-02-18T02:49:07;101369.31;;;9.26;100.00
43436;BME280;36399;51.444;-2.018;2023-02-18T02:54:21;101362.03;;;9.17;100.00
43436;BME280;36399;51.444;-2.018;2023-02-18T02:56:48;101365.59;;;9.19;100.00
43436;BME280;36399;51.444;-2.018;2023-02-18T02:59:18;101363.72;;;9.15;100.00
43436;BME280;36399;51.444;-2.018;2023-02-18T03:02:51;101353.44;;;9.21;100.00
43436;BME280;36399;51.444;-2.018;2023-02-18T03:05:07;101349.03;;;9.20;100.00
43436;BME280;36399;51.444;-2.018;2023-02-18T03:10:24;101341.72;;;9.10;100.00
43436;BME280;36399;51.444;-2.018;2023-02-18T03:20:56;101325.38;;;9.17;100.00
43436;BME280;36399;51.444;-2.018;2023-02-18T03:23:32;101324.78;;;9.26;100.00
43436;BME280;36399;51.444;-2.018;2023-02-18T03:26:01;101315.19;;;9.26;100.00
43436;BME280;36399;51.444;-2.018;2023-02-18T03:28:29;101317.84;;;9.28;100.00
43436;BME280;36399;51.444;-2.018;2023-02-18T03:31:17;101329.03;;;9.22;100.00
43436;BME280;36399;51.444;-2.018;2023-02-18T03:33:54;101309.84;;;9.23;100.00
43436;BME280;36399;51.444;-2.018;2023-02-18T03:36:22;101319.34;;;9.20;100.00
43436;BME280;36399;51.444;-2.018;2023-02-18T03:38:53;101309.78;;;9.22;100.00
43436;BME280;36399;51.444;-2.018;2023-02-18T03:41:20;101313.22;;;9.19;100.00
43436;BME280;36399;51.444;-2.018;2023-02-18T03:43:50;101297.53;;;9.21;100.00
43436;BME280;36399;51.444;-2.018;2023-02-18T03:46:17;101302.91;;;9.25;100.00
43436;BME280;36399;51.444;-2.018;2023-02-18T03:48:43;101315.22;;;9.28;100.00
43436;BME280;36399;51.444;-2.018;2023-02-18T03:51:10;101303.03;;;9.28;100.00
43436;BME280;36399;51.444;-2.018;2023-02-18T03:53:36;101309.09;;;9.27;100.00
43436;BME280;36399;51.444;-2.018;2023-02-18T03:56:02;101303.16;;;9.33;100.00
43436;BME280;36399;51.444;-2.018;2023-02-18T03:58:28;101304.28;;;9.39;100.00
43436;BME280;36399;51.444;-2.018;2023-02-18T04:00:54;101314.56;;;9.35;100.00
43436;BME280;36399;51.444;-2.018;2023-02-18T04:03:20;101298.09;;;9.37;100.00
43436;BME280;36399;51.444;-2.018;2023-02-18T04:05:46;101307.69;;;9.37;100.00
43436;BME280;36399;51.444;-2.018;2023-02-18T04:08:12;101322.66;;;9.41;100.00
43436;BME280;36399;51.444;-2.018;2023-02-18T04:10:38;101333.19;;;9.42;100.00
43436;BME280;36399;51.444;-2.018;2023-02-18T04:13:04;101302.59;;;9.41;100.00
43436;BME280;36399;51.444;-2.018;2023-02-18T04:15:30;101308.63;;;9.39;100.00
43436;BME280;36399;51.444;-2.018;2023-02-18T04:17:56;101314.63;;;9.36;100.00
43436;BME280;36399;51.444;-2.018;2023-02-18T04:20:22;101305.22;;;9.41;100.00
43436;BME280;36399;51.444;-2.018;2023-02-18T04:22:48;101316.34;;;9.36;100.00
43436;BME280;36399;51.444;-2.018;2023-02-18T04:25:14;101308.41;;;9.33;100.00
43436;BME280;36399;51.444;-2.018;2023-02-18T04:27:40;101313.91;;;9.40;100.00
43436;BME280;36399;51.444;-2.018;2023-02-18T04:30:06;101309.47;;;9.38;100.00
43436;BME280;36399;51.444;-2.018;2023-02-18T04:32:32;101313.91;;;9.40;100.00
43436;BME280;36399;51.444;-2.018;2023-02-18T04:34:58;101313.81;;;9.37;100.00
43436;BME280;36399;51.444;-2.018;2023-02-18T04:37:24;101311.13;;;9.36;100.00
43436;BME280;36399;51.444;-2.018;2023-02-18T04:39:50;101305.88;;;9.36;100.00
43436;BME280;36399;51.444;-2.018;2023-02-18T04:42:16;101310.13;;;9.32;100.00
43436;BME280;36399;51.444;-2.018;2023-02-18T04:44:42;101313.59;;;9.31;100.00
43436;BME280;36399;51.444;-2.018;2023-02-18T04:47:08;101322.19;;;9.27;100.00
43436;BME280;36399;51.444;-2.018;2023-02-18T04:49:34;101316.97;;;9.27;100.00
43436;BME280;36399;51.444;-2.018;2023-02-18T04:52:00;101316.78;;;9.21;100.00
43436;BME280;36399;51.444;-2.018;2023-02-18T04:54:26;101320.03;;;9.14;100.00
43436;BME280;36399;51.444;-2.018;2023-02-18T04:56:52;101321.53;;;9.06;100.00
43436;BME280;36399;51.444;-2.018;2023-02-18T04:59:18;101335.34;;;9.02;100.00
43436;BME280;36399;51.444;-2.018;2023-02-18T05:01:44;101325.41;;;8.92;100.00
43436;BME280;36399;51.444;-2.018;2023-02-18T05:04:10;101333.13;;;8.87;100.00
43436;BME280;36399;51.444;-2.018;2023-02-18T05:06:36;101325.13;;;8.84;100.00
43436;BME280;36399;51.444;-2.018;2023-02-18T05:09:05;101338.06;;;8.79;100.00
43436;BME280;36399;51.444;-2.018;2023-02-18T05:11:31;101332.72;;;8.76;100.00
43436;BME280;36399;51.444;-2.018;2023-02-18T05:13:57;101351.78;;;8.72;100.00
43436;BME280;36399;51.444;-2.018;2023-02-18T05:16:23;101342.22;;;8.73;100.00
43436;BME280;36399;51.444;-2.018;2023-02-18T05:18:48;101342.13;;;8.70;100.00
43436;BME280;36399;51.444;-2.018;2023-02-18T05:21:14;101334.31;;;8.71;100.00
43436;BME280;36399;51.444;-2.018;2023-02-18T05:23:40;101351.00;;;8.75;100.00
43436;BME280;36399;51.444;-2.018;2023-02-18T05:26:06;101355.34;;;8.74;100.00
43436;BME280;36399;51.444;-2.018;2023-02-18T05:28:32;101346.66;;;8.75;100.00
43436;BME280;36399;51.444;-2.018;2023-02-18T05:30:58;101347.72;;;8.80;100.00
43436;BME280;36399;51.444;-2.018;2023-02-18T05:33:24;101352.94;;;8.80;100.00
43436;BME280;36399;51.444;-2.018;2023-02-18T05:35:50;101341.53;;;8.78;100.00
43436;BME280;36399;51.444;-2.018;2023-02-18T05:38:16;101349.50;;;8.81;100.00
43436;BME280;36399;51.444;-2.018;2023-02-18T05:40:42;101345.00;;;8.77;100.00
43436;BME280;36399;51.444;-2.018;2023-02-18T05:43:08;101341.63;;;8.81;100.00
43436;BME280;36399;51.444;-2.018;2023-02-18T05:45:34;101355.56;;;8.80;100.00
43436;BME280;36399;51.444;-2.018;2023-02-18T05:48:00;101357.25;;;8.78;100.00
43436;BME280;36399;51.444;-2.018;2023-02-18T05:50:26;101366.94;;;8.81;100.00
43436;BME280;36399;51.444;-2.018;2023-02-18T05:52:52;101363.47;;;8.82;100.00
43436;BME280;36399;51.444;-2.018;2023-02-18T05:55:18;101373.06;;;8.81;100.00
43436;BME280;36399;51.444;-2.018;2023-02-18T05:57:44;101369.50;;;8.79;100.00
43436;BME280;36399;51.444;-2.018;2023-02-18T06:00:11;101367.81;;;8.81;100.00
43436;BME280;36399;51.444;-2.018;2023-02-18T06:02:37;101354.03;;;8.85;100.00
43436;BME280;36399;51.444;-2.018;2023-02-18T06:05:04;101370.78;;;8.91;100.00
43436;BME280;36399;51.444;-2.018;2023-02-18T06:07:30;101371.72;;;8.93;100.00
43436;BME280;36399;51.444;-2.018;2023-02-18T06:09:56;101381.19;;;8.89;100.00
43436;BME280;36399;51.444;-2.018;2023-02-18T06:12:22;101379.22;;;8.83;100.00
43436;BME280;36399;51.444;-2.018;2023-02-18T06:14:48;101373.06;;;8.81;100.00
43436;BME280;36399;51.444;-2.018;2023-02-18T06:17:14;101366.03;;;8.80;100.00
43436;BME280;36399;51.444;-2.018;2023-02-18T06:19:40;101382.41;;;8.99;100.00
43436;BME280;36399;51.444;-2.018;2023-02-18T06:22:07;101380.50;;;8.95;100.00
43436;BME280;36399;51.444;-2.018;2023-02-18T06:24:33;101379.47;;;8.90;100.00
43436;BME280;36399;51.444;-2.018;2023-02-18T06:26:59;101387.22;;;8.87;100.00
43436;BME280;36399;51.444;-2.018;2023-02-18T06:29:25;101368.91;;;8.87;100.00
43436;BME280;36399;51.444;-2.018;2023-02-18T06:31:51;101374.19;;;8.88;100.00
43436;BME280;36399;51.444;-2.018;2023-02-18T06:34:17;101370.72;;;8.89;100.00
43436;BME280;36399;51.444;-2.018;2023-02-18T06:36:43;101380.41;;;8.92;100.00
43436;BME280;36399;51.444;-2.018;2023-02-18T06:39:09;101370.88;;;8.94;100.00
43436;BME280;36399;51.444;-2.018;2023-02-18T06:41:35;101369.84;;;8.89;100.00
43436;BME280;36399;51.444;-2.018;2023-02-18T06:44:00;101383.97;;;8.94;100.00
43436;BME280;36399;51.444;-2.018;2023-02-18T06:46:26;101379.63;;;8.94;100.00
43436;BME280;36399;51.444;-2.018;2023-02-18T06:48:52;101391.00;;;8.95;100.00
43436;BME280;36399;51.444;-2.018;2023-02-18T06:51:18;101390.16;;;8.96;100.00
43436;BME280;36399;51.444;-2.018;2023-02-18T06:53:44;101401.56;;;8.98;100.00
43436;BME280;36399;51.444;-2.018;2023-02-18T06:56:11;101399.06;;;9.01;100.00
43436;BME280;36399;51.444;-2.018;2023-02-18T06:58:37;101404.19;;;8.98;100.00
43436;BME280;36399;51.444;-2.018;2023-02-18T07:01:03;101393.88;;;9.02;100.00
43436;BME280;36399;51.444;-2.018;2023-02-18T07:03:29;101409.75;;;9.07;100.00
43436;BME280;36399;51.444;-2.018;2023-02-18T07:05:55;101406.06;;;9.02;100.00
43436;BME280;36399;51.444;-2.018;2023-02-18T07:08:21;101398.22;;;9.02;100.00
43436;BME280;36399;51.444;-2.018;2023-02-18T07:10:47;101409.63;;;9.04;100.00
43436;BME280;36399;51.444;-2.018;2023-02-18T07:13:14;101402.09;;;9.13;100.00
43436;BME280;36399;51.444;-2.018;2023-02-18T07:15:40;101403.84;;;9.14;100.00
43436;BME280;36399;51.444;-2.018;2023-02-18T07:18:06;101397.00;;;9.17;100.00
43436;BME280;36399;51.444;-2.018;2023-02-18T07:20:32;101402.38;;;9.22;100.00
43436;BME280;36399;51.444;-2.018;2023-02-18T07:22:58;101402.47;;;9.25;100.00
43436;BME280;36399;51.444;-2.018;2023-02-18T07:25:24;101405.06;;;9.24;100.00
43436;BME280;36399;51.444;-2.018;2023-02-18T07:27:51;101402.44;;;9.24;100.00
43436;BME280;36399;51.444;-2.018;2023-02-18T07:30:18;101398.09;;;9.24;100.00
43436;BME280;36399;51.444;-2.018;2023-02-18T07:32:44;101408.56;;;9.24;100.00
43436;BME280;36399;51.444;-2.018;2023-02-18T07:35:13;101412.91;;;9.24;100.00
43436;BME280;36399;51.444;-2.018;2023-02-18T07:37:44;101411.19;;;9.24;100.00
43436;BME280;36399;51.444;-2.018;2023-02-18T07:40:13;101414.66;;;9.23;100.00
43436;BME280;36399;51.444;-2.018;2023-02-18T07:42:39;101424.44;;;9.29;100.00
43436;BME280;36399;51.444;-2.018;2023-02-18T07:45:06;101420.81;;;9.25;100.00
43436;BME280;36399;51.444;-2.018;2023-02-18T07:47:32;101416.53;;;9.27;100.00
43436;BME280;36399;51.444;-2.018;2023-02-18T07:49:58;101415.78;;;9.31;100.00
43436;BME280;36399;51.444;-2.018;2023-02-18T07:52:24;101418.44;;;9.33;100.00
43436;BME280;36399;51.444;-2.018;2023-02-18T07:54:50;101423.69;;;9.33;100.00
43436;BME280;36399;51.444;-2.018;2023-02-18T07:57:16;101413.25;;;9.34;100.00
43436;BME280;36399;51.444;-2.018;2023-02-18T07:59:42;101407.19;;;9.35;100.00
43436;BME280;36399;51.444;-2.018;2023-02-18T08:02:16;101416.81;;;9.36;100.00
43436;BME280;36399;51.444;-2.018;2023-02-18T08:04:43;101430.91;;;9.38;100.00
43436;BME280;36399;51.444;-2.018;2023-02-18T08:07:17;101420.41;;;9.38;100.00
43436;BME280;36399;51.444;-2.018;2023-02-18T08:09:46;101431.00;;;9.41;100.00
43436;BME280;36399;51.444;-2.018;2023-02-18T08:12:15;101431.88;;;9.42;100.00
43436;BME280;36399;51.444;-2.018;2023-02-18T08:14:41;101454.75;;;9.46;100.00
43436;BME280;36399;51.444;-2.018;2023-02-18T08:17:07;101441.59;;;9.44;100.00
43436;BME280;36399;51.444;-2.018;2023-02-18T08:19:33;101441.59;;;9.44;100.00
43436;BME280;36399;51.444;-2.018;2023-02-18T08:22:02;101450.38;;;9.46;100.00
43436;BME280;36399;51.444;-2.018;2023-02-18T08:24:28;101441.69;;;9.47;100.00
43436;BME280;36399;51.444;-2.018;2023-02-18T08:26:54;101438.22;;;9.48;100.00
43436;BME280;36399;51.444;-2.018;2023-02-18T08:29:20;101432.19;;;9.51;100.00
43436;BME280;36399;51.444;-2.018;2023-02-18T08:31:45;101420.91;;;9.54;100.00
43436;BME280;36399;51.444;-2.018;2023-02-18T08:34:11;101428.69;;;9.51;100.00
43436;BME280;36399;51.444;-2.018;2023-02-18T08:36:37;101420.00;;;9.53;100.00
43436;BME280;36399;51.444;-2.018;2023-02-18T08:39:03;101434.84;;;9.53;100.00
43436;BME280;36399;51.444;-2.018;2023-02-18T08:41:29;101427.94;;;9.55;100.00
43436;BME280;36399;51.444;-2.018;2023-02-18T08:43:55;101428.81;;;9.55;100.00
43436;BME280;36399;51.444;-2.018;2023-02-18T08:46:21;101427.94;;;9.55;100.00
43436;BME280;36399;51.444;-2.018;2023-02-18T08:48:47;101420.16;;;9.58;100.00
43436;BME280;36399;51.444;-2.018;2023-02-18T08:51:19;101421.09;;;9.60;100.00
43436;BME280;36399;51.444;-2.018;2023-02-18T08:53:46;101426.53;;;9.66;100.00
43436;BME280;36399;51.444;-2.018;2023-02-18T08:56:14;101428.31;;;9.67;100.00
43436;BME280;36399;51.444;-2.018;2023-02-18T08:58:41;101429.25;;;9.69;100.00
43436;BME280;36399;51.444;-2.018;2023-02-18T09:01:09;101443.31;;;9.71;100.00
43436;BME280;36399;51.444;-2.018;2023-02-18T09:03:36;101449.50;;;9.73;100.00
43436;BME280;36399;51.444;-2.018;2023-02-18T09:06:02;101433.84;;;9.76;100.00
43436;BME280;36399;51.444;-2.018;2023-02-18T09:08:29;101454.81;;;9.76;100.00
43436;BME280;36399;51.444;-2.018;2023-02-18T09:11:01;101436.53;;;9.77;100.00
43436;BME280;36399;51.444;-2.018;2023-02-18T09:13:29;101434.78;;;9.78;100.00
43436;BME280;36399;51.444;-2.018;2023-02-18T09:16:00;101426.06;;;9.79;100.00
43436;BME280;36399;51.444;-2.018;2023-02-18T09:18:26;101427.19;;;9.87;100.00
43436;BME280;36399;51.444;-2.018;2023-02-18T09:20:55;101443.06;;;9.90;100.00
43436;BME280;36399;51.444;-2.018;2023-02-18T09:23:24;101433.56;;;9.94;100.00
43436;BME280;36399;51.444;-2.018;2023-02-18T09:25:50;101445.13;;;10.00;100.00
43436;BME280;36399;51.444;-2.018;2023-02-18T09:28:16;101434.91;;;10.09;100.00
43436;BME280;36399;51.444;-2.018;2023-02-18T09:30:42;101440.59;;;10.23;100.00
43436;BME280;36399;51.444;-2.018;2023-02-18T09:33:08;101432.00;;;10.29;100.00
43436;BME280;36399;51.444;-2.018;2023-02-18T09:35:38;101433.97;;;10.36;100.00
43436;BME280;36399;51.444;-2.018;2023-02-18T09:38:06;101428.94;;;10.42;100.00
43436;BME280;36399;51.444;-2.018;2023-02-18T09:40:36;101431.63;;;10.45;100.00
43436;BME280;36399;51.444;-2.018;2023-02-18T09:43:03;101432.66;;;10.50;100.00
43436;BME280;36399;51.444;-2.018;2023-02-18T09:45:29;101417.75;;;10.49;100.00
43436;BME280;36399;51.444;-2.018;2023-02-18T09:47:56;101413.59;;;10.57;100.00
43436;BME280;36399;51.444;-2.018;2023-02-18T09:50:32;101406.50;;;10.53;100.00
43436;BME280;36399;51.444;-2.018;2023-02-18T09:52:59;101389.13;;;10.58;100.00
43436;BME280;36399;51.444;-2.018;2023-02-18T09:55:38;101404.75;;;10.54;100.00
43436;BME280;36399;51.444;-2.018;2023-02-18T09:58:16;101396.31;;;10.65;100.00
43436;BME280;36399;51.444;-2.018;2023-02-18T10:00:47;101403.44;;;10.69;100.00
43436;BME280;36399;51.444;-2.018;2023-02-18T10:06:11;101385.94;;;10.70;100.00
43436;BME280;36399;51.444;-2.018;2023-02-18T10:08:46;101392.88;;;10.68;100.00
43436;BME280;36399;51.444;-2.018;2023-02-18T10:11:15;101386.78;;;10.69;100.00
43436;BME280;36399;51.444;-2.018;2023-02-18T10:13:43;101360.38;;;10.63;100.00
43436;BME280;36399;51.444;-2.018;2023-02-18T10:16:14;101378.63;;;10.58;100.00
43436;BME280;36399;51.444;-2.018;2023-02-18T10:18:43;101385.41;;;10.50;100.00
43436;BME280;36399;51.444;-2.018;2023-02-18T10:21:13;101381.16;;;10.55;100.00
43436;BME280;36399;51.444;-2.018;2023-02-18T10:26:16;101367.88;;;10.49;100.00
43436;BME280;36399;51.444;-2.018;2023-02-18T10:28:44;101374.91;;;10.50;100.00
43436;BME280;36399;51.444;-2.018;2023-02-18T10:31:16;101373.53;;;10.64;100.00
43436;BME280;36399;51.444;-2.018;2023-02-18T10:33:48;101361.66;;;10.79;100.00
43436;BME280;36399;51.444;-2.018;2023-02-18T10:52:20;101353.16;;;10.89;100.00
43436;BME280;36399;51.444;-2.018;2023-02-18T10:55:10;101349.56;;;10.85;100.00
43436;BME280;36399;51.444;-2.018;2023-02-18T10:57:51;101350.56;;;10.90;100.00
43436;BME280;36399;51.444;-2.018;2023-02-18T11:00:19;101357.81;;;10.99;100.00
43436;BME280;36399;51.444;-2.018;2023-02-18T11:03:21;101363.84;;;10.95;100.00
43436;BME280;36399;51.444;-2.018;2023-02-18T11:05:51;101362.06;;;10.94;100.00
43436;BME280;36399;51.444;-2.018;2023-02-18T11:08:24;101368.06;;;10.90;100.00
43436;BME280;36399;51.444;-2.018;2023-02-18T11:10:52;101367.91;;;10.84;100.00
43436;BME280;36399;51.444;-2.018;2023-02-18T11:13:27;101378.81;;;10.66;100.00
43436;BME280;36399;51.444;-2.018;2023-02-18T11:16:00;101368.38;;;10.67;100.00
43436;BME280;36399;51.444;-2.018;2023-02-18T11:18:35;101385.81;;;10.65;100.00
43436;BME280;36399;51.444;-2.018;2023-02-18T11:23:50;101389.53;;;10.73;100.00
43436;BME280;36399;51.444;-2.018;2023-02-18T11:26:24;101401.66;;;10.68;100.00
43436;BME280;36399;51.444;-2.018;2023-02-18T11:28:57;101404.25;;;10.67;100.00
43436;BME280;36399;51.444;-2.018;2023-02-18T11:31:30;101407.75;;;10.67;100.00
43436;BME280;36399;51.444;-2.018;2023-02-18T11:34:02;101411.50;;;10.77;100.00
43436;BME280;36399;51.444;-2.018;2023-02-18T11:36:30;101406.22;;;10.75;100.00
43436;BME280;36399;51.444;-2.018;2023-02-18T11:38:59;101398.31;;;10.74;100.00
43436;BME280;36399;51.444;-2.018;2023-02-18T11:42:00;101411.56;;;10.79;100.00
43436;BME280;36399;51.444;-2.018;2023-02-18T11:44:33;101412.16;;;10.68;100.00
43436;BME280;36399;51.444;-2.018;2023-02-18T11:49:32;101423.38;;;10.63;100.00
43436;BME280;36399;51.444;-2.018;2023-02-18T11:54:40;101413.03;;;10.69;100.00
43436;BME280;36399;51.444;-2.018;2023-02-18T11:57:11;101413.16;;;10.73;100.00
43436;BME280;36399;51.444;-2.018;2023-02-18T11:59:39;101405.38;;;10.77;100.00
43436;BME280;36399;51.444;-2.018;2023-02-18T12:05:08;101393.41;;;10.88;100.00
43436;BME280;36399;51.444;-2.018;2023-02-18T12:07:45;101396.97;;;10.90;100.00
43436;BME280;36399;51.444;-2.018;2023-02-18T12:10:34;101387.25;;;10.87;100.00
43436;BME280;36399;51.444;-2.018;2023-02-18T12:13:05;101388.19;;;10.89;100.00
43436;BME280;36399;51.444;-2.018;2023-02-18T12:15:49;101382.09;;;10.90;100.00
43436;BME280;36399;51.444;-2.018;2023-02-18T12:20:46;101382.13;;;10.92;100.00
43436;BME280;36399;51.444;-2.018;2023-02-18T12:23:37;101387.50;;;10.95;100.00
43436;BME280;36399;51.444;-2.018;2023-02-18T12:26:23;101391.72;;;10.90;100.00
43436;BME280;36399;51.444;-2.018;2023-02-18T12:29:08;101397.06;;;10.93;100.00
43436;BME280;36399;51.444;-2.018;2023-02-18T12:34:42;101388.66;;;11.06;100.00
43436;BME280;36399;51.444;-2.018;2023-02-18T12:40:02;101372.00;;;11.05;100.00
43436;BME280;36399;51.444;-2.018;2023-02-18T12:48:03;101360.75;;;11.11;100.00
43436;BME280;36399;51.444;-2.018;2023-02-18T12:53:37;101357.44;;;11.18;100.00
43436;BME280;36399;51.444;-2.018;2023-02-18T13:02:01;101350.47;;;11.20;100.00
43436;BME280;36399;51.444;-2.018;2023-02-18T13:05:00;101348.13;;;11.32;100.00
43436;BME280;36399;51.444;-2.018;2023-02-18T13:07:39;101347.25;;;11.32;100.00
43436;BME280;36399;51.444;-2.018;2023-02-18T13:10:23;101348.13;;;11.32;100.00
43436;BME280;36399;51.444;-2.018;2023-02-18T13:13:07;101342.91;;;11.34;100.00
43436;BME280;36399;51.444;-2.018;2023-02-18T13:15:39;101358.72;;;11.35;100.00
43436;BME280;36399;51.444;-2.018;2023-02-18T13:18:19;101334.16;;;11.35;100.00
43436;BME280;36399;51.444;-2.018;2023-02-18T13:21:16;101336.53;;;11.24;100.00
43436;BME280;36399;51.444;-2.018;2023-02-18T13:23:55;101326.31;;;11.36;100.00
43436;BME280;36399;51.444;-2.018;2023-02-18T13:26:22;101303.66;;;11.42;100.00
43436;BME280;36399;51.444;-2.018;2023-02-18T13:34:49;101305.28;;;11.36;100.00
43436;BME280;36399;51.444;-2.018;2023-02-18T13:37:55;101303.16;;;11.20;100.00
43436;BME280;36399;51.444;-2.018;2023-02-18T13:40:26;101292.84;;;11.29;100.00
43436;BME280;36399;51.444;-2.018;2023-02-18T13:43:17;101286.34;;;11.14;100.00
43436;BME280;36399;51.444;-2.018;2023-02-18T13:46:14;101276.88;;;11.20;100.00
43436;BME280;36399;51.444;-2.018;2023-02-18T13:48:51;101287.53;;;11.26;100.00
43436;BME280;36399;51.444;-2.018;2023-02-18T13:51:30;101291.94;;;11.27;100.00
43436;BME280;36399;51.444;-2.018;2023-02-18T13:56:39;101281.78;;;11.44;100.00
43436;BME280;36399;51.444;-2.018;2023-02-18T13:59:10;101284.63;;;11.52;100.00
43436;BME280;36399;51.444;-2.018;2023-02-18T14:01:44;101270.63;;;11.53;100.00
43436;BME280;36399;51.444;-2.018;2023-02-18T14:09:42;101280.66;;;11.72;100.00
43436;BME280;36399;51.444;-2.018;2023-02-18T14:12:38;101275.09;;;11.57;100.00
43436;BME280;36399;51.444;-2.018;2023-02-18T14:17:50;101280.63;;;11.70;100.00
43436;BME280;36399;51.444;-2.018;2023-02-18T14:26:05;101264.69;;;12.02;100.00
43436;BME280;36399;51.444;-2.018;2023-02-18T14:36:48;101235.94;;;12.14;100.00
43436;BME280;36399;51.444;-2.018;2023-02-18T14:42:48;101255.84;;;11.98;100.00
43436;BME280;36399;51.444;-2.018;2023-02-18T14:50:53;101251.66;;;11.69;100.00
43436;BME280;36399;51.444;-2.018;2023-02-18T14:53:23;101254.94;;;11.57;100.00
43436;BME280;36399;51.444;-2.018;2023-02-18T14:55:56;101249.72;;;11.59;100.00
43436;BME280;36399;51.444;-2.018;2023-02-18T14:58:30;101248.56;;;11.46;100.00
43436;BME280;36399;51.444;-2.018;2023-02-18T15:00:57;101244.44;;;11.59;100.00
43436;BME280;36399;51.444;-2.018;2023-02-18T15:03:25;101232.94;;;11.54;100.00
43436;BME280;36399;51.444;-2.018;2023-02-18T15:05:51;101238.19;;;11.52;100.00